createdAt,value
2023-03-02T00:00:53.596Z,-1.79
2023-03-02T00:04:08.340Z,-2.00
2023-03-02T00:07:24.859Z,-1.95
2023-03-02T00:10:40.264Z,-1.89
2023-03-02T00:14:06.513Z,-1.87
2023-03-02T00:17:18.534Z,-1.85
2023-03-02T00:20:41.522Z,-1.81
2023-03-02T00:23:54.556Z,-1.71
2023-03-02T00:27:09.109Z,-1.78
2023-03-02T00:30:22.765Z,-1.82
2023-03-02T00:33:34.658Z,-1.72
2023-03-02T00:36:48.636Z,-1.64
2023-03-02T00:40:01.006Z,-1.61
2023-03-02T00:43:12.997Z,-1.57
2023-03-02T00:46:28.655Z,-1.50
2023-03-02T00:49:40.921Z,-1.48
2023-03-02T00:52:52.813Z,-1.47
2023-03-02T00:56:05.185Z,-1.42
2023-03-02T00:59:21.652Z,-1.40
2023-03-02T01:02:33.903Z,-1.45
2023-03-02T01:05:46.135Z,-1.46
2023-03-02T01:08:57.978Z,-1.77
2023-03-02T01:12:11.509Z,-1.90
2023-03-02T01:15:23.937Z,-2.01
2023-03-02T01:18:38.240Z,-2.06
2023-03-02T01:21:50.937Z,-2.06
2023-03-02T01:25:04.010Z,-2.05
2023-03-02T01:28:15.932Z,-2.10
2023-03-02T01:31:30.530Z,-2.09
2023-03-02T01:34:42.733Z,-2.10
2023-03-02T01:37:54.640Z,-2.13
2023-03-02T01:41:06.554Z,-2.19
2023-03-02T01:44:45.050Z,-2.16
2023-03-02T01:47:57.082Z,-2.21
2023-03-02T01:51:13.140Z,-2.30
2023-03-02T01:54:28.916Z,-2.33
2023-03-02T01:57:47.503Z,-2.33
2023-03-02T02:01:00.953Z,-2.40
2023-03-02T02:04:14.250Z,-2.41
2023-03-02T02:07:27.955Z,-2.43
2023-03-02T02:10:42.564Z,-2.42
2023-03-02T02:13:54.959Z,-2.39
2023-03-02T02:17:06.953Z,-2.41
2023-03-02T02:20:28.130Z,-2.42
2023-03-02T02:23:47.110Z,-2.42
2023-03-02T02:27:03.481Z,-2.46
2023-03-02T02:30:21.432Z,-2.52
2023-03-02T02:33:34.368Z,-2.57
2023-03-02T02:36:51.293Z,-2.61
2023-03-02T02:40:05.871Z,-2.64
2023-03-02T02:43:22.156Z,-2.67
2023-03-02T02:46:35.002Z,-2.70
2023-03-02T02:49:48.323Z,-2.74
2023-03-02T02:53:05.473Z,-2.72
2023-03-02T02:56:19.560Z,-2.74
2023-03-02T02:59:36.192Z,-2.77
2023-03-02T03:02:52.154Z,-2.75
2023-03-02T03:06:07.832Z,-2.74
2023-03-02T03:09:20.055Z,-2.77
2023-03-02T03:12:35.379Z,-2.78
2023-03-02T03:15:47.893Z,-2.73
2023-03-02T03:19:02.806Z,-2.74
2023-03-02T03:22:16.419Z,-2.75
2023-03-02T03:25:34.821Z,-2.71
2023-03-02T03:28:47.112Z,-2.71
2023-03-02T03:32:01.607Z,-2.78
2023-03-02T03:35:16.230Z,-2.81
2023-03-02T03:38:28.298Z,-2.87
2023-03-02T03:41:40.796Z,-2.91
2023-03-02T03:44:53.062Z,-2.94
2023-03-02T03:48:06.532Z,-2.96
2023-03-02T03:51:19.202Z,-2.98
2023-03-02T03:54:31.517Z,-2.97
2023-03-02T03:57:46.968Z,-3.00
2023-03-02T04:00:59.677Z,-3.02
2023-03-02T04:04:15.103Z,-3.07
2023-03-02T04:07:27.352Z,-3.05
2023-03-02T04:10:39.775Z,-2.99
2023-03-02T04:13:52.661Z,-3.06
2023-03-02T04:17:05.554Z,-3.09
2023-03-02T04:20:22.128Z,-3.08
2023-03-02T04:23:36.068Z,-3.05
2023-03-02T04:26:50.729Z,-3.06
2023-03-02T04:30:02.861Z,-3.14
2023-03-02T04:33:17.239Z,-3.17
2023-03-02T04:36:32.846Z,-3.21
2023-03-02T04:39:49.676Z,-3.29
2023-03-02T04:43:05.728Z,-3.31
2023-03-02T04:46:44.793Z,-3.32
2023-03-02T04:50:05.936Z,-3.30
2023-03-02T04:53:19.677Z,-3.31
2023-03-02T04:56:32.483Z,-3.31
2023-03-02T04:59:45.000Z,-3.29
2023-03-02T05:03:24.302Z,-3.29
2023-03-02T05:07:46.877Z,-3.26
2023-03-02T05:11:19.213Z,-3.22
2023-03-02T05:14:45.851Z,-3.20
2023-03-02T05:18:15.754Z,-3.16
2023-03-02T05:21:30.399Z,-3.14
2023-03-02T05:24:42.387Z,-3.20
2023-03-02T05:32:48.892Z,-3.18
2023-03-02T05:56:03.328Z,-2.78
2023-03-02T06:16:40.821Z,-0.49
2023-03-02T06:19:52.917Z,0.06
2023-03-02T06:23:04.982Z,0.45
2023-03-02T06:26:18.326Z,0.79
2023-03-02T06:29:30.764Z,1.08
2023-03-02T06:32:42.820Z,1.55
2023-03-02T06:35:55.719Z,1.99
2023-03-02T06:39:08.531Z,2.33
2023-03-02T06:42:20.402Z,2.44
2023-03-02T06:45:33.838Z,2.57
2023-03-02T06:48:46.197Z,2.41
2023-03-02T06:51:58.806Z,2.51
2023-03-02T06:55:12.643Z,2.69
2023-03-02T06:58:25.016Z,3.10
2023-03-02T07:01:36.978Z,3.29
2023-03-02T07:04:49.032Z,3.41
2023-03-02T07:08:01.159Z,3.70
2023-03-02T07:11:17.815Z,3.71
2023-03-02T07:14:30.081Z,3.85
2023-03-02T07:17:42.764Z,3.86
2023-03-02T07:20:54.826Z,4.11
2023-03-02T07:24:06.918Z,4.30
2023-03-02T07:27:18.929Z,4.77
2023-03-02T07:30:31.165Z,5.24
2023-03-02T07:33:44.113Z,5.86
2023-03-02T07:36:56.676Z,6.42
2023-03-02T07:40:09.978Z,6.14
2023-03-02T07:43:24.076Z,5.99
2023-03-02T07:46:36.029Z,6.55
2023-03-02T07:49:48.312Z,6.77
2023-03-02T07:53:00.361Z,6.14
2023-03-02T07:56:17.267Z,6.08
2023-03-02T07:59:29.426Z,6.01
2023-03-02T08:02:41.784Z,5.72
2023-03-02T08:05:56.785Z,5.75
2023-03-02T08:09:11.515Z,5.57
2023-03-02T08:12:23.408Z,5.52
2023-03-02T08:15:35.496Z,5.99
2023-03-02T08:18:48.519Z,5.90
2023-03-02T08:22:00.872Z,5.96
2023-03-02T08:25:14.826Z,5.84
2023-03-02T08:28:27.652Z,5.81
2023-03-02T08:31:40.070Z,6.19
2023-03-02T08:34:52.937Z,6.69
2023-03-02T08:38:05.026Z,6.55
2023-03-02T08:41:21.250Z,6.99
2023-03-02T08:44:33.301Z,7.87
2023-03-02T08:47:45.412Z,7.99
2023-03-02T08:51:08.660Z,8.39
2023-03-02T08:54:20.660Z,8.65
2023-03-02T08:57:34.841Z,9.03
2023-03-02T09:00:47.044Z,9.15
2023-03-02T09:04:00.711Z,9.72
2023-03-02T09:07:16.533Z,10.14
2023-03-02T09:10:28.671Z,10.06
2023-03-02T09:13:41.369Z,10.48
2023-03-02T09:16:53.820Z,10.56
2023-03-02T09:20:05.947Z,10.92
2023-03-02T09:23:17.921Z,10.53
2023-03-02T09:26:30.688Z,10.84
2023-03-02T09:29:42.759Z,10.96
2023-03-02T09:32:54.950Z,11.07
2023-03-02T09:36:11.581Z,11.10
2023-03-02T09:39:23.697Z,11.01
2023-03-02T09:42:49.610Z,10.96
2023-03-02T09:46:13.023Z,11.16
2023-03-02T09:49:32.139Z,10.81
2023-03-02T09:52:50.099Z,10.41
2023-03-02T09:56:05.651Z,10.91
2023-03-02T09:59:27.431Z,11.23
2023-03-02T10:02:45.217Z,11.28
2023-03-02T10:05:59.253Z,11.38
2023-03-02T10:09:12.636Z,11.32
2023-03-02T10:12:49.224Z,10.74
2023-03-02T10:16:16.654Z,10.98
2023-03-02T10:19:31.556Z,10.81
2023-03-02T10:22:49.002Z,10.60
2023-03-02T10:26:08.115Z,10.20
2023-03-02T10:29:34.364Z,9.91
2023-03-02T10:32:51.097Z,10.23
2023-03-02T10:36:03.139Z,10.14
2023-03-02T10:39:21.389Z,10.41
2023-03-02T10:42:40.258Z,10.13
2023-03-02T10:45:54.717Z,10.64
2023-03-02T10:49:06.818Z,10.55
2023-03-02T10:52:23.280Z,10.64
2023-03-02T10:55:35.736Z,10.54
2023-03-02T10:58:47.690Z,10.61
2023-03-02T11:02:08.290Z,10.78
2023-03-02T11:05:33.862Z,11.34
2023-03-02T11:08:45.856Z,11.47
2023-03-02T11:12:02.370Z,11.50
2023-03-02T11:15:33.242Z,11.74
2023-03-02T11:18:51.401Z,11.99
2023-03-02T11:22:10.065Z,11.91
2023-03-02T11:25:28.057Z,12.25
2023-03-02T11:28:51.687Z,12.09
2023-03-02T11:32:10.487Z,12.43
2023-03-02T11:35:29.317Z,12.19
2023-03-02T11:38:47.461Z,12.30
2023-03-02T11:41:59.537Z,12.29
2023-03-02T11:45:23.762Z,12.00
2023-03-02T11:48:40.785Z,12.37
2023-03-02T11:51:58.432Z,12.28
2023-03-02T11:55:20.503Z,12.38
2023-03-02T11:58:35.649Z,12.24
2023-03-02T12:01:48.380Z,11.97
2023-03-02T12:05:14.345Z,12.32
2023-03-02T12:08:43.813Z,11.97
2023-03-02T12:12:02.109Z,12.47
2023-03-02T12:15:43.713Z,12.62
2023-03-02T12:18:56.755Z,12.11
2023-03-02T12:22:13.495Z,12.11
2023-03-02T12:25:48.161Z,12.55
2023-03-02T12:29:09.338Z,12.48
2023-03-02T12:32:31.399Z,12.19
2023-03-02T12:35:44.346Z,11.96
2023-03-02T12:39:11.553Z,11.97
2023-03-02T12:42:41.800Z,12.09
2023-03-02T12:46:10.824Z,11.96
2023-03-02T12:49:50.158Z,11.98
2023-03-02T12:53:11.585Z,11.82
2023-03-02T12:56:31.452Z,11.87
2023-03-02T12:59:43.669Z,11.47
2023-03-02T13:02:58.477Z,11.10
2023-03-02T13:06:20.438Z,11.28
2023-03-02T13:09:32.841Z,10.82
2023-03-02T13:12:50.016Z,10.82
2023-03-02T13:16:05.088Z,10.97
2023-03-02T13:19:22.261Z,11.08
2023-03-02T13:22:35.233Z,10.86
2023-03-02T13:25:56.323Z,10.90
2023-03-02T13:29:23.144Z,10.96
2023-03-02T13:32:44.947Z,10.82
2023-03-02T13:35:57.333Z,10.94
2023-03-02T13:39:12.182Z,10.74
2023-03-02T13:42:36.670Z,10.82
2023-03-02T13:45:58.205Z,10.96
2023-03-02T13:49:12.833Z,10.84
2023-03-02T13:52:32.482Z,10.92
2023-03-02T13:55:45.690Z,10.83
2023-03-02T13:58:57.745Z,10.89
2023-03-02T14:02:13.595Z,10.66
2023-03-02T14:05:30.938Z,10.84
2023-03-02T14:08:43.089Z,10.81
2023-03-02T14:11:59.666Z,10.73
2023-03-02T14:15:17.247Z,10.73
2023-03-02T14:18:42.064Z,10.44
2023-03-02T14:21:54.385Z,10.24
2023-03-02T14:25:06.358Z,10.07
2023-03-02T14:28:20.801Z,10.21
2023-03-02T14:31:33.556Z,10.07
2023-03-02T14:34:46.601Z,10.07
2023-03-02T14:37:58.896Z,9.87
2023-03-02T14:41:11.498Z,9.71
2023-03-02T14:44:23.688Z,9.68
2023-03-02T14:47:35.670Z,9.54
2023-03-02T14:50:51.543Z,9.41
2023-03-02T14:54:07.851Z,9.22
2023-03-02T14:57:26.231Z,9.05
2023-03-02T15:00:38.602Z,8.98
2023-03-02T15:03:50.511Z,8.91
2023-03-02T15:07:02.553Z,8.86
2023-03-02T15:10:19.289Z,8.72
2023-03-02T15:13:31.459Z,8.57
2023-03-02T15:16:44.176Z,8.45
2023-03-02T15:19:57.572Z,8.38
2023-03-02T15:23:10.139Z,8.26
2023-03-02T15:26:22.889Z,8.17
2023-03-02T15:29:35.465Z,8.06
2023-03-02T15:32:47.893Z,8.04
2023-03-02T15:36:06.330Z,7.89
2023-03-02T15:39:21.237Z,7.79
2023-03-02T15:42:33.611Z,7.68
2023-03-02T15:45:54.644Z,7.69
2023-03-02T15:49:07.187Z,7.60
2023-03-02T15:52:20.972Z,7.52
2023-03-02T15:55:36.078Z,7.43
2023-03-02T15:58:53.672Z,7.28
2023-03-02T16:02:06.594Z,7.17
2023-03-02T16:08:18.990Z,6.88
2023-03-02T16:11:31.035Z,6.79
2023-03-02T16:14:43.046Z,6.72
2023-03-02T16:17:55.389Z,6.66
2023-03-02T16:21:07.835Z,6.52
2023-03-02T16:24:20.228Z,6.42
2023-03-02T16:27:32.454Z,6.30
2023-03-02T16:30:45.890Z,6.23
2023-03-02T16:33:59.124Z,6.06
2023-03-02T16:37:14.236Z,5.98
2023-03-02T16:40:29.900Z,5.90
2023-03-02T16:43:42.119Z,5.82
2023-03-02T16:46:57.003Z,5.74
2023-03-02T16:50:09.436Z,5.65
2023-03-02T16:53:21.971Z,5.64
2023-03-02T16:56:34.548Z,5.58
2023-03-02T16:59:46.777Z,5.42
2023-03-02T17:02:59.510Z,5.27
2023-03-02T17:06:13.801Z,5.29
2023-03-02T17:09:25.824Z,5.25
2023-03-02T17:12:37.722Z,5.18
2023-03-02T17:15:50.326Z,5.09
2023-03-02T17:19:02.744Z,5.03
2023-03-02T17:22:15.111Z,4.98
2023-03-02T17:25:28.148Z,4.98
2023-03-02T17:28:40.478Z,4.93
2023-03-02T17:31:52.570Z,4.84
2023-03-02T17:35:07.517Z,4.81
2023-03-02T17:38:20.347Z,4.79
2023-03-02T17:41:35.053Z,4.73
2023-03-02T17:44:48.326Z,4.68
2023-03-02T17:48:05.479Z,4.59
2023-03-02T17:51:20.510Z,4.51
2023-03-02T17:54:32.945Z,4.43
2023-03-02T17:57:46.484Z,4.45
2023-03-02T18:00:58.736Z,4.35
2023-03-02T18:04:11.181Z,4.27
2023-03-02T18:07:23.608Z,4.21
2023-03-02T18:10:35.797Z,4.11
2023-03-02T18:13:47.910Z,4.01
2023-03-02T18:17:00.400Z,3.92
2023-03-02T18:20:14.789Z,3.90
2023-03-02T18:23:27.151Z,3.74
2023-03-02T18:26:39.539Z,3.61
2023-03-02T18:29:51.761Z,3.36
2023-03-02T18:33:03.782Z,3.22
2023-03-02T18:36:16.873Z,3.14
2023-03-02T18:39:28.899Z,3.16
2023-03-02T18:42:41.190Z,3.00
2023-03-02T18:45:53.171Z,2.99
2023-03-02T18:49:05.891Z,3.03
2023-03-02T18:52:18.505Z,3.01
2023-03-02T18:55:31.571Z,2.94
2023-03-02T18:58:43.935Z,2.96
2023-03-02T19:01:56.177Z,2.99
2023-03-02T19:05:08.867Z,3.00
2023-03-02T19:08:22.889Z,2.94
2023-03-02T19:11:35.073Z,2.93
2023-03-02T19:14:47.269Z,2.84
2023-03-02T19:17:59.438Z,2.75
2023-03-02T19:21:12.759Z,2.78
2023-03-02T19:24:24.861Z,2.76
2023-03-02T19:27:37.846Z,2.78
2023-03-02T19:30:50.032Z,2.76
2023-03-02T19:34:04.171Z,2.72
2023-03-02T19:37:18.616Z,2.70
2023-03-02T19:40:34.600Z,2.61
2023-03-02T19:43:47.183Z,2.59
2023-03-02T19:46:59.825Z,2.60
2023-03-02T19:59:14.076Z,2.45
2023-03-02T20:02:28.029Z,2.40
2023-03-02T20:05:41.277Z,2.36
2023-03-02T20:08:56.140Z,2.30
2023-03-02T20:12:18.482Z,2.27
2023-03-02T20:15:32.396Z,2.31
2023-03-02T20:18:45.696Z,2.30
2023-03-02T20:22:02.737Z,2.29
2023-03-02T20:29:06.289Z,2.11
2023-03-02T20:32:20.369Z,1.99
2023-03-02T20:39:02.647Z,1.76
2023-03-02T20:42:16.149Z,1.77
2023-03-02T20:45:28.472Z,1.75
2023-03-02T20:48:41.610Z,1.70
2023-03-02T20:51:57.357Z,1.65
2023-03-02T20:55:10.538Z,1.63
2023-03-02T20:58:22.640Z,1.58
2023-03-02T21:01:34.910Z,1.54
2023-03-02T21:04:47.923Z,1.49
2023-03-02T21:08:00.298Z,1.33
2023-03-02T21:11:15.652Z,1.19
2023-03-02T21:14:27.973Z,1.14
2023-03-02T21:17:41.521Z,1.14
2023-03-02T21:20:56.121Z,1.18
2023-03-02T21:24:09.179Z,1.15
2023-03-02T21:27:21.459Z,1.14
2023-03-02T21:30:38.202Z,1.06
2023-03-02T21:33:51.839Z,1.04
2023-03-02T21:37:04.883Z,0.91
2023-03-02T21:40:24.944Z,0.98
2023-03-02T21:43:37.473Z,1.02
2023-03-02T21:46:51.509Z,1.06
2023-03-02T21:50:09.649Z,1.05
2023-03-02T21:53:22.619Z,1.06
2023-03-02T21:56:36.601Z,1.04
2023-03-02T21:59:51.347Z,0.99
2023-03-02T22:03:04.892Z,0.95
2023-03-02T22:06:23.244Z,0.94
2023-03-02T22:09:41.109Z,0.86
2023-03-02T22:12:54.682Z,0.84
2023-03-02T22:16:17.890Z,0.83
2023-03-02T22:19:36.073Z,0.79
2023-03-02T22:22:48.564Z,0.76
2023-03-02T22:26:05.985Z,0.77
2023-03-02T22:29:24.911Z,0.73
2023-03-02T22:32:40.611Z,0.67
2023-03-02T22:35:53.391Z,0.62
2023-03-02T22:39:14.382Z,0.65
2023-03-02T22:42:31.198Z,0.59
2023-03-02T22:46:01.317Z,0.54
2023-03-02T22:49:21.991Z,0.49
2023-03-02T22:52:46.872Z,0.46
2023-03-02T23:11:25.212Z,0.08
2023-03-02T23:14:46.015Z,0.05
2023-03-02T23:36:33.254Z,-0.17
